Карточка аэропорта UNWW

Внимание!
Информация на этой странице в стадии наполнения.
Если вы не увидели какой-то информации, или заметили неточность - пожалуйста сообщите нам!
Спасибо!
Команда RU-STAFF
Название аэропортаСпиченково
Название аэропорта (англ.)Spichenkovo
Превышение1023 ft. (311.8 m.)
Координаты53°48.714', 86°52.704'
Высота перехода800m
Эшелон переходаFL050
Коды ответчика5270-5277
Зона ОрВДНовосибирск РПИ (UNNT)
Данные METARUNWW 040800Z VRB01MPS 2000 FU BR FEW004 M10/M17 Q1022 R19/820245 NOSIG RMK QFE739
Проноз погоды (TAF)UNWW 040500Z 0406/0506 VRB01MPS 0600 FZFG FU BKN002 SCT040 BECMG 0407/0410 1500 -SN FU BECMG 0412/0416 0500 -SN FZFG TEMPO 0416/0503 0200 FZFG BECMG 0503/0505 2000 -SN FU BKN016
NOTAMshow/hide NOTAM
AWOS   TABLE

Информация о ВПП

ВПП Длина ВПП (м.) Покрытие Курс ВПП Частота ILS
192679Цементобетон194111.1
012679Цементобетон14 

Диспетчерские позиции

Позывной Наименование органа УВД Частота
UNWW_APPНовокузнецк-Подход118.6
UNWW_TWRНовокузнецк-Старт121.2



Спутниковое изображение